Accueil
METAR-TAF:

METAR-TAF

Aéroports :

Poplar Bluff Municipal Airport

Poplar Bluff, Missouri, États-Unis

latitude: 36-46-14N, longitude: 090-19-20W, altitude: 100 m

Observation

Le bulletin a été fait il y a 19 minutes, à 16:53 UTC
Vent calme
Température 7°C
Humidité 45%
Pression 1026 hPa
Visibilité: 16.1 km
Quelques nuages à une hauteur de 5500 ft

METAR: KPOF 141653Z AUTO 00000KT 10SM FEW055 07/M04 A3030 RMK AO2 SLP265 T00721044

Heure: 11:12 (17:12 UTC)


TAF: absent

Observations et prévisions météorologiques de plus de 4000 aéroports (messages METAR et TAF).

Les stations disponibles sont représentées par des disques jaunes et rouges sur la carte.

Passer la souris dessus pour voir le nom de la station.

Cliquer dessus pour voir les observations et prévisions météorologiques.

Pour changer de carte: cliquez sur les boutons verts avec une croix noire pour zoomer, sur le bouton vert avec un tiret pour effectuer un zoom arrière, ou sur les flèches vertes pour les cartes adjacentes.


METAR-TAF: